Oregon, Wisconsin
Current Conditions -  °F | °C
As of 4:53 PM on Monday 24 Nov 2014 (Local Time) from KMSN Reporting Station
Light Snow Light Snow  
Wind Chill: 15°   Ceiling: 1500
Heat Index: 26°   Visibility: 0.75mi
Dew Point: 23°   Wind: 13mph
Humidity: 88%   Direction: 260°W
Pressure: 29.5"   Gusts: 21mph
Location:  42.93°N, 89.38°W
Report Text: KMSN 242253Z 26011G18KT 220V290 3/4SM R36/P6000FT -SN BR VV015 M03/M05 A2950 RMK AO2 TWR VIS 1 SLP998 SNINCR 1/3 P0003 T10331050
Loading
Personal Weather Stations






























Interactive Weather Map New forecast layout! Learn more

10-Day Weather Forecast

Advertisements
Track Severe Weather on mobile